sensor_id;sensor_type;location;lat;lon;timestamp;P1;durP1;ratioP1;P2;durP2;ratioP2
66559;SDS011;53413;49.878;8.142;2023-12-07T00:00:08;11.67;;;4.23;;
66559;SDS011;53413;49.878;8.142;2023-12-07T00:02:34;14.17;;;4.50;;
66559;SDS011;53413;49.878;8.142;2023-12-07T00:04:59;14.80;;;4.50;;
66559;SDS011;53413;49.878;8.142;2023-12-07T00:07:25;16.33;;;4.97;;
66559;SDS011;53413;49.878;8.142;2023-12-07T00:09:50;15.27;;;4.85;;
66559;SDS011;53413;49.878;8.142;2023-12-07T00:12:16;17.27;;;4.90;;
66559;SDS011;53413;49.878;8.142;2023-12-07T00:14:41;14.23;;;4.50;;
66559;SDS011;53413;49.878;8.142;2023-12-07T00:17:07;16.27;;;4.53;;
66559;SDS011;53413;49.878;8.142;2023-12-07T00:19:32;13.02;;;4.28;;
66559;SDS011;53413;49.878;8.142;2023-12-07T00:21:57;14.40;;;4.77;;
66559;SDS011;53413;49.878;8.142;2023-12-07T00:24:22;15.60;;;4.33;;
66559;SDS011;53413;49.878;8.142;2023-12-07T00:26:48;13.67;;;4.80;;
66559;SDS011;53413;49.878;8.142;2023-12-07T00:29:14;12.88;;;4.68;;
66559;SDS011;53413;49.878;8.142;2023-12-07T00:31:40;18.53;;;4.70;;
66559;SDS011;53413;49.878;8.142;2023-12-07T00:34:05;15.90;;;4.90;;
66559;SDS011;53413;49.878;8.142;2023-12-07T00:36:30;15.17;;;4.73;;
66559;SDS011;53413;49.878;8.142;2023-12-07T00:38:56;13.00;;;4.25;;
66559;SDS011;53413;49.878;8.142;2023-12-07T00:41:21;10.73;;;4.20;;
66559;SDS011;53413;49.878;8.142;2023-12-07T00:43:46;16.93;;;4.93;;
66559;SDS011;53413;49.878;8.142;2023-12-07T00:46:12;17.00;;;5.43;;
66559;SDS011;53413;49.878;8.142;2023-12-07T00:48:38;18.55;;;5.20;;
66559;SDS011;53413;49.878;8.142;2023-12-07T00:51:03;15.57;;;4.40;;
66559;SDS011;53413;49.878;8.142;2023-12-07T00:53:31;13.68;;;4.97;;
66559;SDS011;53413;49.878;8.142;2023-12-07T00:55:56;16.30;;;5.07;;
66559;SDS011;53413;49.878;8.142;2023-12-07T00:58:22;16.77;;;5.00;;
66559;SDS011;53413;49.878;8.142;2023-12-07T01:00:48;16.50;;;4.88;;
66559;SDS011;53413;49.878;8.142;2023-12-07T01:03:13;16.13;;;4.63;;
66559;SDS011;53413;49.878;8.142;2023-12-07T01:05:38;15.37;;;4.90;;
66559;SDS011;53413;49.878;8.142;2023-12-07T01:08:04;15.93;;;4.90;;
66559;SDS011;53413;49.878;8.142;2023-12-07T01:10:29;16.65;;;4.50;;
66559;SDS011;53413;49.878;8.142;2023-12-07T01:12:55;15.93;;;4.67;;
66559;SDS011;53413;49.878;8.142;2023-12-07T01:15:20;14.93;;;4.50;;
66559;SDS011;53413;49.878;8.142;2023-12-07T01:17:45;14.33;;;4.60;;
66559;SDS011;53413;49.878;8.142;2023-12-07T01:20:11;14.33;;;4.77;;
66559;SDS011;53413;49.878;8.142;2023-12-07T01:22:40;16.05;;;4.88;;
66559;SDS011;53413;49.878;8.142;2023-12-07T01:25:10;15.13;;;3.95;;
66559;SDS011;53413;49.878;8.142;2023-12-07T01:27:36;21.80;;;5.10;;
66559;SDS011;53413;49.878;8.142;2023-12-07T01:30:01;14.77;;;4.73;;
66559;SDS011;53413;49.878;8.142;2023-12-07T01:32:28;16.42;;;4.95;;
66559;SDS011;53413;49.878;8.142;2023-12-07T01:34:54;13.65;;;4.43;;
66559;SDS011;53413;49.878;8.142;2023-12-07T01:37:19;17.87;;;4.73;;
66559;SDS011;53413;49.878;8.142;2023-12-07T01:39:44;14.73;;;4.70;;
66559;SDS011;53413;49.878;8.142;2023-12-07T01:42:10;17.43;;;4.70;;
66559;SDS011;53413;49.878;8.142;2023-12-07T01:44:37;15.98;;;4.72;;
66559;SDS011;53413;49.878;8.142;2023-12-07T01:47:02;14.60;;;4.87;;
66559;SDS011;53413;49.878;8.142;2023-12-07T01:49:29;15.65;;;4.63;;
66559;SDS011;53413;49.878;8.142;2023-12-07T01:51:54;14.83;;;4.77;;
66559;SDS011;53413;49.878;8.142;2023-12-07T01:54:21;14.52;;;4.35;;
66559;SDS011;53413;49.878;8.142;2023-12-07T01:56:47;14.57;;;4.60;;
66559;SDS011;53413;49.878;8.142;2023-12-07T01:59:12;12.43;;;4.07;;
66559;SDS011;53413;49.878;8.142;2023-12-07T02:01:38;15.10;;;4.23;;
66559;SDS011;53413;49.878;8.142;2023-12-07T02:04:03;11.07;;;3.80;;
66559;SDS011;53413;49.878;8.142;2023-12-07T02:06:28;15.50;;;4.75;;
66559;SDS011;53413;49.878;8.142;2023-12-07T02:09:53;11.37;;;3.57;;
66559;SDS011;53413;49.878;8.142;2023-12-07T02:13:20;14.00;;;4.13;;
66559;SDS011;53413;49.878;8.142;2023-12-07T02:16:53;11.27;;;4.07;;
66559;SDS011;53413;49.878;8.142;2023-12-07T02:20:37;12.02;;;3.88;;
66559;SDS011;53413;49.878;8.142;2023-12-07T02:24:06;15.18;;;4.70;;
66559;SDS011;53413;49.878;8.142;2023-12-07T02:26:34;13.30;;;4.47;;
66559;SDS011;53413;49.878;8.142;2023-12-07T02:28:59;14.35;;;4.60;;
66559;SDS011;53413;49.878;8.142;2023-12-07T02:31:25;13.37;;;4.53;;
66559;SDS011;53413;49.878;8.142;2023-12-07T02:33:50;12.55;;;4.25;;
66559;SDS011;53413;49.878;8.142;2023-12-07T02:36:16;14.33;;;4.33;;
66559;SDS011;53413;49.878;8.142;2023-12-07T02:38:45;12.98;;;4.30;;
66559;SDS011;53413;49.878;8.142;2023-12-07T02:41:12;17.03;;;4.27;;
66559;SDS011;53413;49.878;8.142;2023-12-07T02:43:38;15.85;;;4.72;;
66559;SDS011;53413;49.878;8.142;2023-12-07T02:46:04;16.30;;;4.65;;
66559;SDS011;53413;49.878;8.142;2023-12-07T02:48:29;14.57;;;4.30;;
66559;SDS011;53413;49.878;8.142;2023-12-07T02:50:55;14.40;;;4.70;;
66559;SDS011;53413;49.878;8.142;2023-12-07T02:53:20;16.87;;;4.80;;
66559;SDS011;53413;49.878;8.142;2023-12-07T02:55:46;12.87;;;4.73;;
66559;SDS011;53413;49.878;8.142;2023-12-07T02:58:11;14.83;;;4.30;;
66559;SDS011;53413;49.878;8.142;2023-12-07T03:00:36;14.63;;;4.57;;
66559;SDS011;53413;49.878;8.142;2023-12-07T03:03:02;15.97;;;4.63;;
66559;SDS011;53413;49.878;8.142;2023-12-07T03:05:27;14.73;;;4.40;;
66559;SDS011;53413;49.878;8.142;2023-12-07T03:07:52;16.60;;;4.47;;
66559;SDS011;53413;49.878;8.142;2023-12-07T03:10:18;15.85;;;4.70;;
66559;SDS011;53413;49.878;8.142;2023-12-07T03:12:43;15.30;;;4.40;;
66559;SDS011;53413;49.878;8.142;2023-12-07T03:15:08;14.90;;;4.73;;
66559;SDS011;53413;49.878;8.142;2023-12-07T03:17:35;15.73;;;4.57;;
66559;SDS011;53413;49.878;8.142;2023-12-07T03:20:00;15.10;;;4.67;;
66559;SDS011;53413;49.878;8.142;2023-12-07T03:22:26;12.73;;;4.03;;
66559;SDS011;53413;49.878;8.142;2023-12-07T03:24:51;15.20;;;4.80;;
66559;SDS011;53413;49.878;8.142;2023-12-07T03:27:17;14.15;;;4.82;;
66559;SDS011;53413;49.878;8.142;2023-12-07T03:29:43;16.97;;;4.53;;
66559;SDS011;53413;49.878;8.142;2023-12-07T03:32:08;16.88;;;5.13;;
66559;SDS011;53413;49.878;8.142;2023-12-07T03:34:34;14.53;;;4.43;;
66559;SDS011;53413;49.878;8.142;2023-12-07T03:36:59;17.80;;;5.03;;
66559;SDS011;53413;49.878;8.142;2023-12-07T03:39:24;16.90;;;5.07;;
66559;SDS011;53413;49.878;8.142;2023-12-07T03:41:51;11.82;;;4.57;;
66559;SDS011;53413;49.878;8.142;2023-12-07T03:44:16;13.45;;;4.80;;
66559;SDS011;53413;49.878;8.142;2023-12-07T03:46:42;16.40;;;4.43;;
66559;SDS011;53413;49.878;8.142;2023-12-07T03:49:07;14.47;;;4.60;;
66559;SDS011;53413;49.878;8.142;2023-12-07T03:51:33;14.07;;;4.70;;
66559;SDS011;53413;49.878;8.142;2023-12-07T03:54:00;17.58;;;4.80;;
66559;SDS011;53413;49.878;8.142;2023-12-07T03:56:29;15.60;;;4.60;;
66559;SDS011;53413;49.878;8.142;2023-12-07T03:58:56;14.45;;;5.03;;
66559;SDS011;53413;49.878;8.142;2023-12-07T04:01:22;13.10;;;4.20;;
66559;SDS011;53413;49.878;8.142;2023-12-07T04:03:51;15.32;;;4.88;;
66559;SDS011;53413;49.878;8.142;2023-12-07T04:06:17;18.07;;;4.70;;
66559;SDS011;53413;49.878;8.142;2023-12-07T04:08:43;19.70;;;6.78;;
66559;SDS011;53413;49.878;8.142;2023-12-07T04:11:08;30.13;;;7.33;;
66559;SDS011;53413;49.878;8.142;2023-12-07T04:13:34;26.58;;;7.47;;
66559;SDS011;53413;49.878;8.142;2023-12-07T04:15:59;20.42;;;6.30;;
66559;SDS011;53413;49.878;8.142;2023-12-07T04:18:24;17.80;;;5.70;;
66559;SDS011;53413;49.878;8.142;2023-12-07T04:20:50;19.50;;;5.47;;
66559;SDS011;53413;49.878;8.142;2023-12-07T04:23:15;16.93;;;5.67;;
66559;SDS011;53413;49.878;8.142;2023-12-07T04:25:40;18.33;;;6.60;;
66559;SDS011;53413;49.878;8.142;2023-12-07T04:28:05;18.77;;;6.17;;
66559;SDS011;53413;49.878;8.142;2023-12-07T04:30:31;20.53;;;6.13;;
66559;SDS011;53413;49.878;8.142;2023-12-07T04:32:56;19.40;;;6.07;;
66559;SDS011;53413;49.878;8.142;2023-12-07T04:35:21;22.53;;;6.23;;
66559;SDS011;53413;49.878;8.142;2023-12-07T04:37:50;18.00;;;6.35;;
66559;SDS011;53413;49.878;8.142;2023-12-07T04:40:15;18.03;;;5.97;;
66559;SDS011;53413;49.878;8.142;2023-12-07T04:42:40;23.38;;;6.55;;
66559;SDS011;53413;49.878;8.142;2023-12-07T04:45:06;21.73;;;7.20;;
66559;SDS011;53413;49.878;8.142;2023-12-07T04:47:32;22.30;;;6.53;;
66559;SDS011;53413;49.878;8.142;2023-12-07T04:49:58;16.13;;;5.55;;
66559;SDS011;53413;49.878;8.142;2023-12-07T04:52:23;19.50;;;5.23;;
66559;SDS011;53413;49.878;8.142;2023-12-07T04:54:48;19.27;;;5.93;;
66559;SDS011;53413;49.878;8.142;2023-12-07T04:57:14;22.02;;;5.90;;
66559;SDS011;53413;49.878;8.142;2023-12-07T04:59:39;18.63;;;5.87;;
66559;SDS011;53413;49.878;8.142;2023-12-07T05:02:05;20.17;;;5.77;;
66559;SDS011;53413;49.878;8.142;2023-12-07T05:04:31;19.58;;;5.72;;
66559;SDS011;53413;49.878;8.142;2023-12-07T05:06:58;15.52;;;5.32;;
66559;SDS011;53413;49.878;8.142;2023-12-07T05:09:23;16.07;;;5.20;;
66559;SDS011;53413;49.878;8.142;2023-12-07T05:11:49;15.43;;;5.73;;
66559;SDS011;53413;49.878;8.142;2023-12-07T05:14:14;14.70;;;4.63;;
66559;SDS011;53413;49.878;8.142;2023-12-07T05:16:40;13.77;;;4.90;;
66559;SDS011;53413;49.878;8.142;2023-12-07T05:19:05;17.05;;;5.63;;
66559;SDS011;53413;49.878;8.142;2023-12-07T05:21:31;18.73;;;6.17;;
66559;SDS011;53413;49.878;8.142;2023-12-07T05:23:56;17.27;;;5.40;;
66559;SDS011;53413;49.878;8.142;2023-12-07T05:26:21;21.93;;;6.87;;
66559;SDS011;53413;49.878;8.142;2023-12-07T05:28:47;19.80;;;6.40;;
66559;SDS011;53413;49.878;8.142;2023-12-07T05:31:16;19.48;;;5.80;;
66559;SDS011;53413;49.878;8.142;2023-12-07T05:33:42;18.40;;;6.10;;
66559;SDS011;53413;49.878;8.142;2023-12-07T05:36:07;16.90;;;5.10;;
66559;SDS011;53413;49.878;8.142;2023-12-07T05:38:33;18.55;;;5.90;;
66559;SDS011;53413;49.878;8.142;2023-12-07T05:40:58;19.13;;;5.37;;
66559;SDS011;53413;49.878;8.142;2023-12-07T05:43:24;16.33;;;5.70;;
66559;SDS011;53413;49.878;8.142;2023-12-07T05:45:49;16.07;;;5.07;;
66559;SDS011;53413;49.878;8.142;2023-12-07T05:48:14;17.67;;;5.20;;
66559;SDS011;53413;49.878;8.142;2023-12-07T05:50:40;14.20;;;4.63;;
66559;SDS011;53413;49.878;8.142;2023-12-07T05:53:06;15.70;;;5.50;;
66559;SDS011;53413;49.878;8.142;2023-12-07T05:55:31;20.38;;;5.70;;
66559;SDS011;53413;49.878;8.142;2023-12-07T05:57:56;16.90;;;5.30;;
66559;SDS011;53413;49.878;8.142;2023-12-07T06:00:22;15.32;;;4.38;;
66559;SDS011;53413;49.878;8.142;2023-12-07T06:02:48;20.57;;;5.87;;
66559;SDS011;53413;49.878;8.142;2023-12-07T06:05:13;14.67;;;5.07;;
66559;SDS011;53413;49.878;8.142;2023-12-07T06:07:39;20.20;;;5.43;;
66559;SDS011;53413;49.878;8.142;2023-12-07T06:10:04;17.42;;;5.55;;
66559;SDS011;53413;49.878;8.142;2023-12-07T06:12:30;17.27;;;5.63;;
66559;SDS011;53413;49.878;8.142;2023-12-07T06:14:55;15.38;;;4.95;;
66559;SDS011;53413;49.878;8.142;2023-12-07T06:17:21;17.03;;;5.40;;
66559;SDS011;53413;49.878;8.142;2023-12-07T06:19:47;18.43;;;5.93;;
66559;SDS011;53413;49.878;8.142;2023-12-07T06:22:12;22.02;;;6.28;;
66559;SDS011;53413;49.878;8.142;2023-12-07T06:24:38;20.73;;;5.70;;
66559;SDS011;53413;49.878;8.142;2023-12-07T06:27:04;19.93;;;5.53;;
66559;SDS011;53413;49.878;8.142;2023-12-07T06:29:29;27.00;;;5.10;;
66559;SDS011;53413;49.878;8.142;2023-12-07T06:31:55;20.73;;;5.27;;
66559;SDS011;53413;49.878;8.142;2023-12-07T06:34:20;20.92;;;5.25;;
66559;SDS011;53413;49.878;8.142;2023-12-07T06:36:46;20.37;;;4.67;;
66559;SDS011;53413;49.878;8.142;2023-12-07T06:39:12;20.63;;;4.90;;
66559;SDS011;53413;49.878;8.142;2023-12-07T06:41:38;25.48;;;5.50;;
66559;SDS011;53413;49.878;8.142;2023-12-07T06:44:04;21.40;;;5.05;;
66559;SDS011;53413;49.878;8.142;2023-12-07T06:46:29;27.73;;;5.07;;
66559;SDS011;53413;49.878;8.142;2023-12-07T06:48:54;23.73;;;5.60;;
66559;SDS011;53413;49.878;8.142;2023-12-07T06:51:20;18.27;;;4.80;;
66559;SDS011;53413;49.878;8.142;2023-12-07T06:53:45;48.77;;;5.90;;
66559;SDS011;53413;49.878;8.142;2023-12-07T06:56:11;23.23;;;5.88;;
66559;SDS011;53413;49.878;8.142;2023-12-07T06:58:36;30.70;;;5.23;;
66559;SDS011;53413;49.878;8.142;2023-12-07T07:01:01;43.03;;;6.20;;
66559;SDS011;53413;49.878;8.142;2023-12-07T07:03:27;24.70;;;5.23;;
66559;SDS011;53413;49.878;8.142;2023-12-07T07:05:52;22.17;;;5.53;;
66559;SDS011;53413;49.878;8.142;2023-12-07T07:08:19;21.40;;;5.13;;
66559;SDS011;53413;49.878;8.142;2023-12-07T07:10:44;28.20;;;6.17;;
66559;SDS011;53413;49.878;8.142;2023-12-07T07:13:11;25.98;;;6.22;;
66559;SDS011;53413;49.878;8.142;2023-12-07T07:15:39;24.30;;;5.82;;
66559;SDS011;53413;49.878;8.142;2023-12-07T07:18:07;27.63;;;6.45;;
66559;SDS011;53413;49.878;8.142;2023-12-07T07:20:33;27.97;;;6.17;;
66559;SDS011;53413;49.878;8.142;2023-12-07T07:22:58;26.83;;;5.93;;
66559;SDS011;53413;49.878;8.142;2023-12-07T07:25:24;28.77;;;6.43;;
66559;SDS011;53413;49.878;8.142;2023-12-07T07:27:49;22.93;;;5.67;;
66559;SDS011;53413;49.878;8.142;2023-12-07T07:30:15;28.80;;;6.70;;
66559;SDS011;53413;49.878;8.142;2023-12-07T07:32:40;19.60;;;5.03;;
66559;SDS011;53413;49.878;8.142;2023-12-07T07:35:06;22.98;;;5.43;;
66559;SDS011;53413;49.878;8.142;2023-12-07T07:37:32;23.87;;;5.77;;
66559;SDS011;53413;49.878;8.142;2023-12-07T07:39:57;25.42;;;5.38;;
66559;SDS011;53413;49.878;8.142;2023-12-07T07:42:24;26.42;;;4.93;;
66559;SDS011;53413;49.878;8.142;2023-12-07T07:44:50;23.27;;;5.50;;
66559;SDS011;53413;49.878;8.142;2023-12-07T07:47:15;25.93;;;5.60;;
66559;SDS011;53413;49.878;8.142;2023-12-07T07:49:40;20.83;;;5.97;;
66559;SDS011;53413;49.878;8.142;2023-12-07T07:52:06;29.40;;;6.27;;
66559;SDS011;53413;49.878;8.142;2023-12-07T07:54:31;24.27;;;6.10;;
66559;SDS011;53413;49.878;8.142;2023-12-07T07:56:56;19.80;;;5.65;;
66559;SDS011;53413;49.878;8.142;2023-12-07T07:59:22;38.93;;;6.23;;
66559;SDS011;53413;49.878;8.142;2023-12-07T08:01:47;36.10;;;6.10;;
66559;SDS011;53413;49.878;8.142;2023-12-07T08:04:13;34.67;;;5.10;;
66559;SDS011;53413;49.878;8.142;2023-12-07T08:06:38;24.42;;;5.60;;
66559;SDS011;53413;49.878;8.142;2023-12-07T08:09:04;18.05;;;5.28;;
66559;SDS011;53413;49.878;8.142;2023-12-07T08:11:29;31.77;;;5.20;;
66559;SDS011;53413;49.878;8.142;2023-12-07T08:13:54;24.97;;;5.37;;
66559;SDS011;53413;49.878;8.142;2023-12-07T08:16:20;33.40;;;7.73;;
66559;SDS011;53413;49.878;8.142;2023-12-07T08:18:45;22.17;;;5.87;;
66559;SDS011;53413;49.878;8.142;2023-12-07T08:21:20;40.63;;;6.78;;
66559;SDS011;53413;49.878;8.142;2023-12-07T08:23:50;28.60;;;5.70;;
66559;SDS011;53413;49.878;8.142;2023-12-07T08:26:16;26.52;;;5.45;;
66559;SDS011;53413;49.878;8.142;2023-12-07T08:28:42;45.17;;;6.80;;
66559;SDS011;53413;49.878;8.142;2023-12-07T08:31:07;36.63;;;6.70;;
66559;SDS011;53413;49.878;8.142;2023-12-07T08:33:33;32.72;;;6.38;;
66559;SDS011;53413;49.878;8.142;2023-12-07T08:36:04;39.33;;;6.87;;
66559;SDS011;53413;49.878;8.142;2023-12-07T08:38:31;32.70;;;6.47;;
66559;SDS011;53413;49.878;8.142;2023-12-07T08:40:57;25.02;;;5.50;;
66559;SDS011;53413;49.878;8.142;2023-12-07T08:43:23;33.05;;;6.13;;
66559;SDS011;53413;49.878;8.142;2023-12-07T08:45:52;34.78;;;6.28;;
66559;SDS011;53413;49.878;8.142;2023-12-07T08:48:18;39.97;;;6.60;;
66559;SDS011;53413;49.878;8.142;2023-12-07T08:50:44;32.67;;;5.97;;
66559;SDS011;53413;49.878;8.142;2023-12-07T08:53:09;23.27;;;5.90;;
66559;SDS011;53413;49.878;8.142;2023-12-07T08:55:35;23.53;;;5.30;;
66559;SDS011;53413;49.878;8.142;2023-12-07T08:58:00;38.70;;;6.30;;
66559;SDS011;53413;49.878;8.142;2023-12-07T09:00:25;19.10;;;5.43;;
66559;SDS011;53413;49.878;8.142;2023-12-07T09:02:51;24.27;;;5.30;;
66559;SDS011;53413;49.878;8.142;2023-12-07T09:05:17;20.17;;;5.33;;
66559;SDS011;53413;49.878;8.142;2023-12-07T09:07:43;25.73;;;4.97;;
66559;SDS011;53413;49.878;8.142;2023-12-07T09:10:09;18.73;;;5.20;;
66559;SDS011;53413;49.878;8.142;2023-12-07T09:12:35;23.58;;;4.60;;
66559;SDS011;53413;49.878;8.142;2023-12-07T09:15:01;27.63;;;4.70;;
66559;SDS011;53413;49.878;8.142;2023-12-07T09:17:28;27.60;;;4.68;;
66559;SDS011;53413;49.878;8.142;2023-12-07T09:19:53;31.10;;;5.37;;
66559;SDS011;53413;49.878;8.142;2023-12-07T09:22:19;24.23;;;4.57;;
66559;SDS011;53413;49.878;8.142;2023-12-07T09:24:45;20.70;;;5.35;;
66559;SDS011;53413;49.878;8.142;2023-12-07T09:27:11;23.25;;;4.55;;
66559;SDS011;53413;49.878;8.142;2023-12-07T09:29:38;18.67;;;4.80;;
66559;SDS011;53413;49.878;8.142;2023-12-07T09:32:03;21.70;;;4.68;;
66559;SDS011;53413;49.878;8.142;2023-12-07T09:34:29;19.13;;;4.33;;
66559;SDS011;53413;49.878;8.142;2023-12-07T09:37:10;24.23;;;4.63;;
66559;SDS011;53413;49.878;8.142;2023-12-07T09:39:35;18.15;;;4.65;;
66559;SDS011;53413;49.878;8.142;2023-12-07T09:42:01;17.80;;;4.22;;
66559;SDS011;53413;49.878;8.142;2023-12-07T09:44:27;25.98;;;4.30;;
66559;SDS011;53413;49.878;8.142;2023-12-07T09:46:52;18.13;;;4.47;;
66559;SDS011;53413;49.878;8.142;2023-12-07T09:49:18;15.15;;;4.00;;
66559;SDS011;53413;49.878;8.142;2023-12-07T09:51:44;15.23;;;4.27;;
66559;SDS011;53413;49.878;8.142;2023-12-07T09:54:11;20.50;;;4.13;;
66559;SDS011;53413;49.878;8.142;2023-12-07T09:56:37;16.83;;;4.13;;
66559;SDS011;53413;49.878;8.142;2023-12-07T09:59:02;13.47;;;4.03;;
66559;SDS011;53413;49.878;8.142;2023-12-07T10:01:29;17.15;;;4.90;;
66559;SDS011;53413;49.878;8.142;2023-12-07T10:06:51;15.32;;;4.43;;
66559;SDS011;53413;49.878;8.142;2023-12-07T10:09:16;23.20;;;4.60;;
66559;SDS011;53413;49.878;8.142;2023-12-07T10:11:43;23.90;;;4.43;;
66559;SDS011;53413;49.878;8.142;2023-12-07T10:14:09;18.17;;;4.68;;
66559;SDS011;53413;49.878;8.142;2023-12-07T10:16:35;20.00;;;4.70;;
66559;SDS011;53413;49.878;8.142;2023-12-07T10:19:12;19.55;;;4.28;;
66559;SDS011;53413;49.878;8.142;2023-12-07T10:21:38;18.23;;;3.95;;
66559;SDS011;53413;49.878;8.142;2023-12-07T10:24:04;19.50;;;4.10;;
66559;SDS011;53413;49.878;8.142;2023-12-07T10:26:30;21.15;;;4.53;;
66559;SDS011;53413;49.878;8.142;2023-12-07T10:28:55;24.93;;;4.80;;
66559;SDS011;53413;49.878;8.142;2023-12-07T10:31:21;15.97;;;4.47;;
66559;SDS011;53413;49.878;8.142;2023-12-07T10:33:49;17.50;;;4.20;;
66559;SDS011;53413;49.878;8.142;2023-12-07T10:36:15;15.00;;;4.10;;
66559;SDS011;53413;49.878;8.142;2023-12-07T10:38:40;19.23;;;4.72;;
66559;SDS011;53413;49.878;8.142;2023-12-07T10:41:06;22.83;;;4.80;;
66559;SDS011;53413;49.878;8.142;2023-12-07T10:43:37;14.52;;;3.70;;
66559;SDS011;53413;49.878;8.142;2023-12-07T10:46:13;17.65;;;4.03;;
66559;SDS011;53413;49.878;8.142;2023-12-07T10:48:44;23.58;;;4.25;;
66559;SDS011;53413;49.878;8.142;2023-12-07T10:51:10;21.17;;;4.20;;
66559;SDS011;53413;49.878;8.142;2023-12-07T10:53:43;13.97;;;3.70;;
66559;SDS011;53413;49.878;8.142;2023-12-07T10:56:10;20.20;;;3.58;;
66559;SDS011;53413;49.878;8.142;2023-12-07T10:58:38;23.83;;;4.50;;
66559;SDS011;53413;49.878;8.142;2023-12-07T11:01:07;24.00;;;4.38;;
66559;SDS011;53413;49.878;8.142;2023-12-07T11:03:36;18.50;;;4.00;;
66559;SDS011;53413;49.878;8.142;2023-12-07T11:06:06;19.13;;;3.73;;
66559;SDS011;53413;49.878;8.142;2023-12-07T11:08:39;23.90;;;4.30;;
66559;SDS011;53413;49.878;8.142;2023-12-07T11:13:49;20.98;;;4.13;;
66559;SDS011;53413;49.878;8.142;2023-12-07T11:16:28;20.15;;;4.22;;
66559;SDS011;53413;49.878;8.142;2023-12-07T11:18:55;19.50;;;3.70;;
66559;SDS011;53413;49.878;8.142;2023-12-07T11:21:20;17.88;;;4.53;;
66559;SDS011;53413;49.878;8.142;2023-12-07T11:23:46;17.95;;;4.65;;
66559;SDS011;53413;49.878;8.142;2023-12-07T11:26:11;23.53;;;4.90;;
66559;SDS011;53413;49.878;8.142;2023-12-07T11:28:38;18.38;;;4.40;;
66559;SDS011;53413;49.878;8.142;2023-12-07T11:31:07;17.73;;;4.80;;
66559;SDS011;53413;49.878;8.142;2023-12-07T11:33:33;17.13;;;3.95;;
66559;SDS011;53413;49.878;8.142;2023-12-07T11:38:27;18.63;;;4.30;;
66559;SDS011;53413;49.878;8.142;2023-12-07T11:40:53;18.37;;;3.90;;
66559;SDS011;53413;49.878;8.142;2023-12-07T11:45:58;25.88;;;6.10;;
66559;SDS011;53413;49.878;8.142;2023-12-07T11:48:24;19.83;;;5.00;;
66559;SDS011;53413;49.878;8.142;2023-12-07T11:50:56;17.55;;;4.25;;
66559;SDS011;53413;49.878;8.142;2023-12-07T11:53:23;17.48;;;4.07;;
66559;SDS011;53413;49.878;8.142;2023-12-07T11:55:59;20.85;;;3.97;;
66559;SDS011;53413;49.878;8.142;2023-12-07T11:58:26;18.33;;;5.40;;
66559;SDS011;53413;49.878;8.142;2023-12-07T12:00:52;19.42;;;5.15;;
66559;SDS011;53413;49.878;8.142;2023-12-07T12:03:18;21.42;;;5.38;;
66559;SDS011;53413;49.878;8.142;2023-12-07T12:05:45;25.83;;;6.22;;
66559;SDS011;53413;49.878;8.142;2023-12-07T12:08:11;18.83;;;6.03;;
66559;SDS011;53413;49.878;8.142;2023-12-07T12:10:37;26.58;;;6.20;;
66559;SDS011;53413;49.878;8.142;2023-12-07T12:13:03;21.80;;;5.85;;
66559;SDS011;53413;49.878;8.142;2023-12-07T12:15:29;22.73;;;5.90;;
66559;SDS011;53413;49.878;8.142;2023-12-07T12:17:58;24.05;;;6.15;;
66559;SDS011;53413;49.878;8.142;2023-12-07T12:20:24;24.67;;;6.25;;
66559;SDS011;53413;49.878;8.142;2023-12-07T12:22:50;21.20;;;5.67;;
66559;SDS011;53413;49.878;8.142;2023-12-07T12:25:25;29.05;;;6.30;;
66559;SDS011;53413;49.878;8.142;2023-12-07T12:27:58;33.25;;;6.35;;
66559;SDS011;53413;49.878;8.142;2023-12-07T12:30:27;21.45;;;5.30;;
66559;SDS011;53413;49.878;8.142;2023-12-07T12:32:53;21.08;;;5.95;;
66559;SDS011;53413;49.878;8.142;2023-12-07T12:35:18;26.63;;;6.13;;
66559;SDS011;53413;49.878;8.142;2023-12-07T12:37:44;23.47;;;5.67;;
66559;SDS011;53413;49.878;8.142;2023-12-07T12:40:11;27.98;;;5.75;;
66559;SDS011;53413;49.878;8.142;2023-12-07T12:42:40;24.20;;;5.82;;
66559;SDS011;53413;49.878;8.142;2023-12-07T12:45:07;23.02;;;5.72;;
66559;SDS011;53413;49.878;8.142;2023-12-07T12:47:33;24.10;;;5.88;;
66559;SDS011;53413;49.878;8.142;2023-12-07T12:50:00;24.10;;;6.80;;
66559;SDS011;53413;49.878;8.142;2023-12-07T12:52:26;31.23;;;7.55;;
66559;SDS011;53413;49.878;8.142;2023-12-07T12:54:55;23.13;;;6.40;;
66559;SDS011;53413;49.878;8.142;2023-12-07T12:57:20;25.08;;;6.22;;
66559;SDS011;53413;49.878;8.142;2023-12-07T12:59:46;27.50;;;7.40;;
66559;SDS011;53413;49.878;8.142;2023-12-07T13:02:13;26.48;;;5.80;;
66559;SDS011;53413;49.878;8.142;2023-12-07T13:04:38;21.73;;;5.97;;
66559;SDS011;53413;49.878;8.142;2023-12-07T13:07:04;24.40;;;6.10;;
66559;SDS011;53413;49.878;8.142;2023-12-07T13:09:29;23.40;;;5.47;;
66559;SDS011;53413;49.878;8.142;2023-12-07T13:11:54;25.17;;;5.68;;
66559;SDS011;53413;49.878;8.142;2023-12-07T13:14:20;20.40;;;5.00;;
66559;SDS011;53413;49.878;8.142;2023-12-07T13:16:45;18.03;;;5.33;;
66559;SDS011;53413;49.878;8.142;2023-12-07T13:19:11;26.40;;;6.07;;
66559;SDS011;53413;49.878;8.142;2023-12-07T13:21:36;23.53;;;4.97;;
66559;SDS011;53413;49.878;8.142;2023-12-07T13:24:01;21.40;;;5.55;;
66559;SDS011;53413;49.878;8.142;2023-12-07T13:26:29;22.92;;;5.93;;
66559;SDS011;53413;49.878;8.142;2023-12-07T13:28:55;24.95;;;6.50;;
66559;SDS011;53413;49.878;8.142;2023-12-07T13:31:20;22.48;;;6.15;;
66559;SDS011;53413;49.878;8.142;2023-12-07T13:33:46;24.43;;;6.40;;
66559;SDS011;53413;49.878;8.142;2023-12-07T13:36:12;25.05;;;6.70;;
66559;SDS011;53413;49.878;8.142;2023-12-07T13:38:37;24.77;;;6.40;;
66559;SDS011;53413;49.878;8.142;2023-12-07T13:41:04;23.33;;;5.70;;
66559;SDS011;53413;49.878;8.142;2023-12-07T13:43:30;18.47;;;5.13;;
66559;SDS011;53413;49.878;8.142;2023-12-07T13:45:55;20.30;;;5.30;;
66559;SDS011;53413;49.878;8.142;2023-12-07T13:48:20;17.53;;;5.40;;
66559;SDS011;53413;49.878;8.142;2023-12-07T13:50:46;19.57;;;5.30;;
66559;SDS011;53413;49.878;8.142;2023-12-07T13:53:11;19.80;;;5.50;;
66559;SDS011;53413;49.878;8.142;2023-12-07T13:55:37;19.53;;;5.80;;
66559;SDS011;53413;49.878;8.142;2023-12-07T13:58:04;19.50;;;5.30;;
66559;SDS011;53413;49.878;8.142;2023-12-07T14:00:31;18.80;;;5.28;;
66559;SDS011;53413;49.878;8.142;2023-12-07T14:02:57;18.53;;;5.40;;
66559;SDS011;53413;49.878;8.142;2023-12-07T14:05:23;19.27;;;5.13;;
66559;SDS011;53413;49.878;8.142;2023-12-07T14:07:49;18.80;;;5.07;;
66559;SDS011;53413;49.878;8.142;2023-12-07T14:10:15;18.35;;;4.93;;
66559;SDS011;53413;49.878;8.142;2023-12-07T14:12:40;17.23;;;5.10;;
66559;SDS011;53413;49.878;8.142;2023-12-07T14:15:06;17.13;;;5.60;;
66559;SDS011;53413;49.878;8.142;2023-12-07T14:17:32;19.55;;;5.90;;
66559;SDS011;53413;49.878;8.142;2023-12-07T14:20:05;18.23;;;5.50;;
66559;SDS011;53413;49.878;8.142;2023-12-07T14:22:32;21.35;;;5.95;;
66559;SDS011;53413;49.878;8.142;2023-12-07T14:24:58;23.38;;;6.13;;
66559;SDS011;53413;49.878;8.142;2023-12-07T14:27:23;22.00;;;6.40;;
66559;SDS011;53413;49.878;8.142;2023-12-07T14:29:49;28.83;;;7.78;;
66559;SDS011;53413;49.878;8.142;2023-12-07T14:32:14;28.77;;;7.97;;
66559;SDS011;53413;49.878;8.142;2023-12-07T14:34:40;20.60;;;5.73;;
66559;SDS011;53413;49.878;8.142;2023-12-07T14:37:05;25.97;;;6.47;;
66559;SDS011;53413;49.878;8.142;2023-12-07T14:39:31;25.85;;;7.18;;
66559;SDS011;53413;49.878;8.142;2023-12-07T14:41:56;25.00;;;7.07;;